Time;durP1;ratioP1;P1;durP2;ratioP2;P2;SDS_P1;SDS_P2;PMS_P1;PMS_P2;Temp;Humidity;BMP_temperature;BMP_pressure;BME280_temperature;BME280_humidity;BME280_pressure;Samples;Min_cycle;Max_cycle;Signal;HPM_P1;HPM_P2
2023/04/10 00:01:25;;;;;;;27.00;20.90;;;;;;;8.54;82.04;100860.92;103519;1254;139155;-70
2023/04/10 00:03:48;;;;;;;30.90;21.10;;;;;;;8.53;82.01;100864.23;103761;1258;107955;-70
2023/04/10 00:06:14;;;;;;;;;;;;;;;8.51;82.14;100864.61;103214;1254;138581;-69
2023/04/10 00:08:40;;;;;;;32.00;21.10;;;;;;;8.49;82.20;100867.76;103543;1254;109075;-69
2023/04/10 00:11:08;;;;;;;29.20;21.40;;;;;;;8.46;82.11;100868.49;103273;1254;107056;-69
2023/04/10 00:13:31;;;;;;;29.60;20.50;;;;;;;8.42;81.95;100864.19;103274;1254;138808;-69
2023/04/10 00:15:56;;;;;;;30.10;21.20;;;;;;;8.39;81.88;100864.41;103511;1257;107089;-70
2023/04/10 00:18:33;;;;;;;29.30;21.70;;;;;;;8.34;81.73;100868.63;103200;1258;138635;-70
2023/04/10 00:20:59;;;;;;;;;;;;;;;8.30;81.74;100870.75;103353;1258;110853;-69
2023/04/10 00:23:43;;;;;;;29.80;20.90;;;;;;;8.25;81.90;100871.14;103293;1254;108792;-70
2023/04/10 00:26:07;;;;;;;29.20;21.30;;;;;;;8.23;82.04;100870.47;103403;1258;138303;-69
2023/04/10 00:28:36;;;;;;;28.90;22.00;;;;;;;8.22;82.23;100868.93;103356;1256;108247;-70
2023/04/10 00:31:09;;;;;;;29.20;21.50;;;;;;;8.20;82.33;100872.06;103049;1256;138847;-70
2023/04/10 00:33:36;;;;;;;28.60;21.70;;;;;;;8.18;82.42;100869.67;103311;1254;110159;-70
2023/04/10 00:36:00;;;;;;;34.60;22.20;;;;;;;8.15;82.46;100871.44;103267;1258;109100;-70
2023/04/10 00:38:27;;;;;;;32.50;21.80;;;;;;;8.16;82.64;100872.83;103182;1254;138406;-69
2023/04/10 00:40:53;;;;;;;28.90;21.20;;;;;;;8.14;82.68;100868.68;103271;1258;108462;-70
2023/04/10 00:43:37;;;;;;;32.30;22.00;;;;;;;8.13;82.78;100870.09;103187;1254;138337;-69
2023/04/10 00:46:01;;;;;;;31.00;21.40;;;;;;;8.12;82.66;100868.88;103331;1254;110954;-69
2023/04/10 00:48:27;;;;;;;35.70;22.10;;;;;;;8.11;82.78;100864.41;103150;1258;138679;-71
2023/04/10 00:51:12;;;;;;;30.90;21.70;;;;;;;8.08;82.97;100866.17;103020;1259;97282;-70
2023/04/10 00:53:35;;;;;;;31.40;21.40;;;;;;;8.06;83.10;100867.21;103018;1263;107153;-69
2023/04/10 00:56:00;;;;;;;32.20;23.20;;;;;;;8.05;83.34;100867.40;102785;1261;139009;-70
2023/04/10 00:58:25;;;;;;;30.60;22.70;;;;;;;8.04;83.42;100869.65;102867;1260;110615;-69
2023/04/10 01:00:52;;;;;;;31.80;22.40;;;;;;;8.03;83.47;100862.92;103009;1260;138625;-70
2023/04/10 01:03:37;;;;;;;31.40;22.30;;;;;;;8.02;83.56;100866.75;103060;1259;96963;-70
2023/04/10 01:06:35;;;;;;;33.10;22.80;;;;;;;7.99;83.72;100869.20;102812;1259;139413;-70
2023/04/10 01:09:08;;;;;;;30.80;22.70;;;;;;;7.98;83.82;100877.02;102984;1259;96639;-69
2023/04/10 01:11:51;;;;;;;30.80;22.60;;;;;;;7.97;83.93;100877.03;103011;1259;111187;-70
2023/04/10 01:14:27;;;;;;;31.00;23.30;;;;;;;7.96;84.06;100875.31;102883;1259;138568;-70
2023/04/10 01:16:57;;;;;;;33.20;23.60;;;;;;;7.95;84.10;100875.33;103340;1260;94849;-69
2023/04/10 01:19:42;;;;;;;31.10;21.70;;;;;;;7.93;83.94;100875.35;103079;1259;138166;-72
2023/04/10 01:22:15;;;;;;;30.00;22.50;;;;;;;7.92;84.12;100875.02;103328;1260;96606;-70
2023/04/10 01:25:14;;;;;;;31.10;21.40;;;;;;;7.92;84.26;100876.77;103058;1258;138173;-70
2023/04/10 01:27:59;;;;;;;28.70;22.10;;;;;;;7.91;84.28;100879.02;103128;1257;108684;-70
2023/04/10 01:30:25;;;;;;;28.10;20.30;;;;;;;7.90;84.41;100876.94;103516;1254;138718;-69
2023/04/10 01:33:00;;;;;;;30.10;21.10;;;;;;;7.88;84.43;100880.23;103257;1254;108885;-69
2023/04/10 01:35:30;;;;;;;30.30;22.00;;;;;;;7.87;84.56;100872.80;103241;1256;96446;-69
2023/04/10 01:38:00;;;;;;;29.30;20.60;;;;;;;7.85;84.70;100869.87;103415;1254;138249;-69
2023/04/10 01:40:26;;;;;;;31.20;21.30;;;;;;;7.87;84.89;100867.09;103230;1254;107328;-69
2023/04/10 01:42:53;;;;;;;28.50;19.90;;;;;;;7.87;84.97;100870.90;103202;1254;138355;-69
2023/04/10 01:45:27;;;;;;;25.50;20.30;;;;;;;7.87;85.09;100872.62;103602;1254;108590;-71
2023/04/10 01:47:56;;;;;;;28.20;21.20;;;;;;;7.86;85.07;100872.28;103259;1254;96450;-69
2023/04/10 01:50:22;;;;;;;28.30;20.70;;;;;;;7.85;85.10;100876.98;103231;1258;138545;-69
2023/04/10 01:53:01;;;;;;;26.70;19.80;;;;;;;7.84;85.20;100878.02;103167;1257;107151;-69
2023/04/10 01:55:31;;;;;;;24.40;19.40;;;;;;;7.83;85.29;100879.08;103137;1254;138305;-69
2023/04/10 01:58:15;;;;;;;25.00;18.70;;;;;;;7.84;85.36;100875.09;103264;1256;107018;-69
2023/04/10 02:00:40;;;;;;;25.30;19.00;;;;;;;7.84;85.28;100876.64;103092;1254;138738;-70
2023/04/10 02:03:04;;;;;;;25.40;18.30;;;;;;;7.84;85.41;100880.27;103664;1254;110990;-69
2023/04/10 02:06:07;;;;;;;24.00;17.80;;;;;;;7.84;85.24;100880.11;102672;1260;107940;-69
2023/04/10 02:08:36;;;;;;;25.80;18.20;;;;;;;7.83;85.12;100882.89;102825;1263;96780;-70
2023/04/10 02:11:12;;;;;;;23.00;17.30;;;;;;;7.83;85.02;100878.73;102717;1265;107522;-70
2023/04/10 02:13:40;;;;;;;23.90;18.20;;;;;;;7.83;85.03;100875.79;102897;1264;138568;-69
2023/04/10 02:16:08;;;;;;;23.90;16.80;;;;;;;7.83;85.05;100878.56;102724;1262;110456;-69
2023/04/10 02:18:34;;;;;;;25.10;17.20;;;;;;;7.83;84.95;100881.34;102598;1263;139275;-69
2023/04/10 02:21:19;;;;;;;24.40;17.80;;;;;;;7.82;84.93;100882.73;102778;1260;96533;-69
2023/04/10 02:23:51;;;;;;;22.80;17.40;;;;;;;7.83;84.78;100884.45;102697;1260;108769;-70
2023/04/10 02:26:15;;;;;;;22.50;16.70;;;;;;;7.83;84.82;100886.01;102956;1260;139213;-68
2023/04/10 02:28:39;;;;;;;25.70;17.10;;;;;;;7.83;84.69;100885.49;102793;1262;110983;-70
2023/04/10 02:31:07;;;;;;;23.00;16.50;;;;;;;7.81;84.48;100883.95;102657;1264;138557;-70
2023/04/10 02:33:31;;;;;;;26.00;17.00;;;;;;;7.77;84.46;100886.42;103221;1264;97052;-69
2023/04/10 02:35:55;;;;;;;23.80;17.60;;;;;;;7.74;84.19;100886.29;103148;1261;105867;-70
2023/04/10 02:38:21;;;;;;;26.10;17.40;;;;;;;7.68;84.08;100883.21;102924;1260;138130;-70
2023/04/10 02:40:46;;;;;;;24.70;18.70;;;;;;;7.65;84.07;100883.95;103613;1256;109112;-69
2023/04/10 02:43:13;;;;;;;25.40;18.30;;;;;;;7.62;84.09;100885.70;103030;1256;138427;-69
2023/04/10 02:45:41;;;;;;;25.20;19.40;;;;;;;7.59;84.18;100884.20;103265;1255;96714;-70
2023/04/10 02:48:20;;;;;;;28.30;20.90;;;;;;;7.56;84.18;100882.50;103161;1259;138311;-69
2023/04/10 02:51:06;;;;;;;28.90;20.60;;;;;;;7.53;84.20;100880.77;103307;1254;96424;-70
2023/04/10 02:53:41;;;;;;;26.10;19.80;;;;;;;7.50;84.28;100879.41;103422;1253;108996;-70
2023/04/10 02:56:21;;;;;;;31.40;20.70;;;;;;;7.49;84.30;100877.87;103191;1254;138122;-70
2023/04/10 02:58:56;;;;;;;28.10;20.70;;;;;;;7.47;84.41;100877.73;103334;1258;96944;-70
2023/04/10 03:01:30;;;;;;;30.00;21.00;;;;;;;7.45;84.38;100877.05;103394;1254;138170;-70
2023/04/10 03:03:57;;;;;;;30.50;21.30;;;;;;;7.44;84.34;100881.38;103200;1254;96489;-70
2023/04/10 03:06:26;;;;;;;28.50;20.40;;;;;;;7.41;84.64;100881.76;103178;1256;138386;-70
2023/04/10 03:08:51;;;;;;;29.60;20.90;;;;;;;7.40;84.66;100883.51;103525;1254;108079;-70
2023/04/10 03:11:36;;;;;;;31.60;21.30;;;;;;;7.38;84.59;100879.55;103286;1254;96961;-71
2023/04/10 03:14:09;;;;;;;31.00;21.00;;;;;;;7.35;84.52;100877.83;103762;1254;138172;-69
2023/04/10 03:16:33;;;;;;;30.10;21.00;;;;;;;7.32;84.59;100883.73;103261;1254;96349;-70
2023/04/10 03:19:00;;;;;;;27.80;20.70;;;;;;;7.30;84.68;100883.92;103342;1254;138217;-70
2023/04/10 03:21:23;;;;;;;32.60;21.80;;;;;;;7.28;84.81;100884.12;103345;1254;107298;-70
2023/04/10 03:23:51;;;;;;;32.30;21.90;;;;;;;7.24;84.92;100879.84;103235;1254;96424;-70
2023/04/10 03:26:24;;;;;;;29.50;20.60;;;;;;;7.20;84.91;100885.23;103002;1254;138035;-69
2023/04/10 03:28:51;;;;;;;28.80;21.00;;;;;;;7.18;85.09;100881.80;103179;1254;96391;-70
2023/04/10 03:31:27;;;;;;;31.30;21.10;;;;;;;7.16;85.21;100881.61;103378;1255;138298;-70
2023/04/10 03:34:11;;;;;;;28.90;21.00;;;;;;;7.14;85.18;100876.79;103124;1259;106995;-70
2023/04/10 03:36:35;;;;;;;33.00;21.70;;;;;;;7.12;85.33;100871.27;103147;1254;139108;-70
2023/04/10 03:39:01;;;;;;;31.20;21.40;;;;;;;7.11;85.46;100871.63;103190;1258;108817;-70
2023/04/10 03:41:46;;;;;;;30.40;21.20;;;;;;;7.10;85.47;100870.42;103107;1256;96431;-69
2023/04/10 03:44:30;;;;;;;33.50;22.50;;;;;;;7.08;85.57;100869.77;103083;1256;137968;-70
2023/04/10 03:46:54;;;;;;;36.90;22.90;;;;;;;7.06;85.67;100870.30;103681;1255;108937;-70
2023/04/10 03:49:27;;;;;;;33.70;23.50;;;;;;;7.05;85.71;100872.90;103111;1254;138406;-70
2023/04/10 03:52:11;;;;;;;34.00;23.30;;;;;;;7.03;85.68;100868.77;103216;1255;108154;-70
2023/04/10 03:54:55;;;;;;;36.40;23.40;;;;;;;7.03;85.60;100871.20;103095;1255;138626;-70
2023/04/10 03:57:22;;;;;;;31.90;23.10;;;;;;;7.02;85.62;100874.48;103145;1254;110841;-70
2023/04/10 04:00:09;;;;;;;34.90;23.20;;;;;;;7.03;85.76;100872.05;103200;1258;107527;-71
2023/04/10 04:02:44;;;;;;;31.30;21.60;;;;;;;7.06;85.96;100873.94;103716;1255;95492;-71
2023/04/10 04:05:11;;;;;;;32.80;22.50;;;;;;;7.08;86.01;100874.95;103853;1260;107353;-70
2023/04/10 04:07:46;;;;;;;35.30;22.40;;;;;;;7.11;86.08;100880.29;103152;1254;138717;-71
2023/04/10 04:10:18;;;;;;;32.80;21.10;;;;;;;7.13;85.95;100884.75;103198;1260;110306;-70
2023/04/10 04:13:04;;;;;;;33.70;21.80;;;;;;;7.18;85.97;100885.60;103174;1256;138618;-70
2023/04/10 04:15:46;;;;;;;29.10;20.40;;;;;;;7.21;85.86;100887.13;103241;1255;96486;-70
2023/04/10 04:18:26;;;;;;;28.70;19.80;;;;;;;7.25;85.69;100892.80;103163;1256;139388;-70
2023/04/10 04:21:08;;;;;;;30.90;19.60;;;;;;;7.30;85.50;100898.64;103204;1254;96568;-70
2023/04/10 04:23:51;;;;;;;27.00;20.20;;;;;;;7.41;85.69;100899.23;103171;1258;109920;-70
2023/04/10 04:26:38;;;;;;;27.00;19.30;;;;;;;7.84;85.90;100898.81;103341;1255;107658;-70
2023/04/10 04:29:22;;;;;;;27.10;18.80;;;;;;;8.47;85.65;100901.91;103267;1255;97311;-71
2023/04/10 04:32:18;;;;;;;21.20;15.60;;;;;;;9.14;84.36;100908.05;102645;1255;138557;-70
2023/04/10 04:35:11;;;;;;;20.50;15.10;;;;;;;9.87;82.85;100907.30;102940;1258;96522;-70
2023/04/10 04:37:37;;;;;;;19.60;14.50;;;;;;;10.50;81.76;100907.45;102998;1258;138584;-70
2023/04/10 04:40:14;;;;;;;18.90;13.90;;;;;;;11.20;80.25;100905.17;103124;1258;107155;-70
2023/04/10 04:42:57;;;;;;;19.10;13.50;;;;;;;11.67;78.05;100907.31;103082;1259;138767;-69
2023/04/10 04:45:35;;;;;;;18.00;12.00;;;;;;;12.14;77.12;100910.61;103144;1257;108179;-71
2023/04/10 04:48:06;;;;;;;16.00;11.70;;;;;;;12.70;76.18;100909.14;103167;1255;96461;-71
2023/04/10 04:51:08;;;;;;;15.00;11.70;;;;;;;13.36;74.55;100914.75;103023;1259;110020;-70
2023/04/10 04:53:55;;;;;;;13.60;10.60;;;;;;;14.10;73.19;100909.21;103429;1257;107845;-71
2023/04/10 04:56:44;;;;;;;14.50;10.50;;;;;;;14.99;71.69;100906.55;103157;1260;96446;-72
2023/04/10 04:59:19;;;;;;;12.30;10.00;;;;;;;15.85;69.87;100905.79;103377;1257;107435;-71
2023/04/10 05:01:52;;;;;;;14.30;10.40;;;;;;;16.74;68.38;100905.29;103002;1257;137961;-71
2023/04/10 05:04:29;;;;;;;12.60;10.30;;;;;;;17.68;66.51;100903.99;103223;1258;110247;-71
2023/04/10 05:07:02;;;;;;;12.10;9.70;;;;;;;18.53;64.38;100900.72;103291;1257;138291;-71
2023/04/10 05:09:49;;;;;;;12.60;9.70;;;;;;;19.47;62.60;100900.17;103458;1258;96628;-72
2023/04/10 05:12:36;;;;;;;10.80;9.30;;;;;;;20.30;60.35;100900.99;103391;1259;138182;-72
2023/04/10 05:15:14;;;;;;;11.00;9.10;;;;;;;20.98;58.24;100901.39;103117;1260;96876;-71
2023/04/10 05:17:45;;;;;;;10.90;9.10;;;;;;;21.51;56.38;100903.27;103198;1258;251532;-70
2023/04/10 05:20:30;;;;;;;12.20;8.90;;;;;;;22.21;55.05;100895.44;102986;1258;138017;-70
2023/04/10 05:22:53;;;;;;;11.20;8.80;;;;;;;22.84;53.55;100895.67;103550;1260;96455;-70
2023/04/10 05:25:40;;;;;;;11.60;8.70;;;;;;;23.50;51.90;100890.45;103008;1257;137654;-70
2023/04/10 05:28:12;;;;;;;10.60;9.00;;;;;;;24.01;50.20;100891.63;103077;1255;96554;-70
2023/04/10 05:30:49;;;;;;;11.10;8.60;;;;;;;24.59;49.22;100892.23;103282;1258;140520;-70
2023/04/10 05:33:38;;;;;;;9.70;8.40;;;;;;;25.11;47.53;100897.38;103066;1256;108648;-69
2023/04/10 05:36:19;;;;;;;8.60;7.80;;;;;;;25.51;46.17;100896.95;103111;1257;96396;-70
2023/04/10 05:39:03;;;;;;;9.50;7.40;;;;;;;25.84;45.10;100897.11;103677;1255;107769;-69
2023/04/10 05:41:53;;;;;;;7.80;6.90;;;;;;;26.29;44.16;100891.94;103124;1256;96457;-70
2023/04/10 05:44:37;;;;;;;9.60;7.10;;;;;;;26.94;43.74;100896.15;103064;1260;137440;-71
2023/04/10 05:47:04;;;;;;;9.10;7.30;;;;;;;27.46;42.54;100894.99;102835;1263;108205;-70
2023/04/10 05:50:00;;;;;;;9.70;7.90;;;;;;;27.74;41.05;100897.95;102804;1254;138028;-70
2023/04/10 05:52:43;;;;;;;8.70;7.80;;;;;;;27.96;40.12;100899.58;103148;1256;107285;-70
2023/04/10 05:55:22;;;;;;;10.10;7.50;;;;;;;28.05;39.75;100898.84;103025;1256;137869;-70
2023/04/10 05:58:13;;;;;;;8.80;7.90;;;;;;;28.34;39.08;100897.02;103088;1256;110596;-69
2023/04/10 06:00:55;;;;;;;9.40;8.10;;;;;;;28.66;38.58;100894.59;103362;1258;138006;-70
2023/04/10 06:03:39;;;;;;;10.80;8.00;;;;;;;28.98;37.48;100895.23;103078;1255;96311;-69
2023/04/10 06:06:06;;;;;;;9.70;8.70;;;;;;;29.22;37.13;100902.14;104005;1254;108351;-70
2023/04/10 06:08:30;;;;;;;11.10;7.80;;;;;;;29.69;36.85;100900.58;103258;1255;138231;-70
2023/04/10 06:10:53;;;;;;;9.80;8.00;;;;;;;30.02;35.74;100901.84;103092;1256;109952;-71
2023/04/10 06:13:17;;;;;;;10.40;8.00;;;;;;;30.32;35.49;100903.33;103156;1255;137711;-66
2023/04/10 06:15:40;;;;;;;8.80;7.70;;;;;;;30.78;35.05;100903.66;103139;1256;96454;-67
2023/04/10 06:18:04;;;;;;;12.90;7.70;;;;;;;31.18;34.94;100902.20;103128;1260;107708;-65
2023/04/10 06:20:28;;;;;;;8.20;7.40;;;;;;;31.27;34.10;100904.28;103135;1255;137837;-65
2023/04/10 06:22:52;;;;;;;12.10;8.30;;;;;;;31.67;34.24;100900.60;103163;1258;110450;-64
2023/04/10 06:25:16;;;;;;;7.90;7.10;;;;;;;32.35;33.83;100898.92;102974;1255;138143;-69
2023/04/10 06:27:40;;;;;;;8.70;7.00;;;;;;;32.86;32.89;100900.10;104452;1256;94566;-69
2023/04/10 06:30:08;;;;;;;10.20;7.70;;;;;;;33.38;32.23;100905.13;103507;1257;100144;-69
2023/04/10 06:32:32;;;;;;;7.20;6.50;;;;;;;33.82;31.43;100906.04;103173;1262;138055;-68
2023/04/10 06:34:57;;;;;;;9.70;7.30;;;;;;;34.24;31.06;100905.63;103376;1256;101390;-68
2023/04/10 06:37:28;;;;;;;10.00;6.70;;;;;;;34.90;30.76;100901.21;103506;1256;137856;-68
2023/04/10 06:39:59;;;;;;;12.10;7.30;;;;;;;35.61;30.22;100902.47;103406;1258;96417;-69
2023/04/10 06:42:23;;;;;;;8.50;6.80;;;;;;;36.16;29.39;100904.29;103280;1256;99964;-68
2023/04/10 06:44:53;;;;;;;9.90;6.50;;;;;;;36.61;28.83;100904.35;103232;1256;96448;-68
2023/04/10 06:47:17;;;;;;;6.50;5.70;;;;;;;37.16;28.54;100907.49;103188;1256;102248;-69
2023/04/10 06:49:40;;;;;;;7.30;6.10;;;;;;;37.70;27.71;100908.79;103615;1256;137679;-70
2023/04/10 06:52:05;;;;;;;12.50;5.50;;;;;;;38.10;27.01;100908.98;103038;1258;96568;-69
2023/04/10 06:54:29;;;;;;;7.70;6.10;;;;;;;38.34;26.67;100908.89;103144;1258;100083;-69
2023/04/10 06:56:57;;;;;;;5.80;5.10;;;;;;;38.54;26.14;100913.42;103280;1258;96447;-68
2023/04/10 06:59:21;;;;;;;6.80;5.70;;;;;;;38.90;25.57;100907.40;103241;1258;102097;-69
2023/04/10 07:01:44;;;;;;;6.90;4.80;;;;;;;39.24;25.20;100907.73;102987;1256;137982;-70
2023/04/10 07:04:08;;;;;;;6.40;5.70;;;;;;;39.42;25.00;100907.71;103104;1258;96494;-70
2023/04/10 07:06:32;;;;;;;6.60;5.30;;;;;;;39.64;24.78;100908.29;103108;1256;100296;-70
2023/04/10 07:08:56;;;;;;;8.00;5.50;;;;;;;39.95;24.42;100903.82;102934;1260;96429;-70
2023/04/10 07:11:19;;;;;;;7.90;6.00;;;;;;;40.13;24.01;100907.23;103018;1260;101805;-70
2023/04/10 07:13:43;;;;;;;7.00;6.10;;;;;;;39.95;23.51;100907.80;102853;1260;139063;-70
2023/04/10 07:16:09;;;;;;;6.10;5.50;;;;;;;39.99;23.37;100907.00;103040;1260;97137;-70
2023/04/10 07:18:34;;;;;;;8.40;6.20;;;;;;;40.24;23.11;100910.98;104493;1256;99123;-70
2023/04/10 07:20:57;;;;;;;8.40;6.30;;;;;;;40.27;22.89;100908.23;104537;1255;94789;-70
2023/04/10 07:23:21;;;;;;;7.80;5.40;;;;;;;40.31;22.88;100910.14;104563;1256;102227;-70
2023/04/10 07:25:45;;;;;;;6.30;5.10;;;;;;;40.36;22.61;100915.21;104457;1256;137708;-70
2023/04/10 07:28:09;;;;;;;7.10;5.80;;;;;;;40.40;22.16;100912.91;103847;1259;96298;-70
2023/04/10 07:30:32;;;;;;;5.70;5.10;;;;;;;40.28;22.09;100911.98;103209;1256;98801;-71
2023/04/10 07:32:56;;;;;;;6.20;5.40;;;;;;;40.11;21.91;100912.48;103250;1256;96325;-70
2023/04/10 07:35:20;;;;;;;6.50;5.80;;;;;;;39.96;21.73;100914.30;103208;1258;100965;-70
2023/04/10 07:37:44;;;;;;;6.70;6.00;;;;;;;39.97;21.86;100917.91;103083;1257;137660;-70
2023/04/10 07:40:10;;;;;;;7.00;6.00;;;;;;;40.15;21.68;100917.17;103249;1255;96440;-71
2023/04/10 07:42:34;;;;;;;7.50;6.70;;;;;;;40.25;21.32;100915.39;103320;1256;100000;-71
2023/04/10 07:44:57;;;;;;;8.10;5.70;;;;;;;40.22;21.23;100917.27;103211;1260;96461;-70
2023/04/10 07:47:21;;;;;;;6.40;5.70;;;;;;;40.35;21.22;100917.96;103024;1260;102419;-70
2023/04/10 07:49:45;;;;;;;8.10;6.30;;;;;;;40.34;21.12;100920.46;102994;1260;137608;-70
2023/04/10 07:52:08;;;;;;;6.90;6.00;;;;;;;40.22;20.80;100922.14;103186;1257;96430;-70
2023/04/10 07:54:33;;;;;;;7.50;5.80;;;;;;;40.04;20.81;100921.80;103174;1257;107775;-70
2023/04/10 07:56:56;;;;;;;7.00;5.90;;;;;;;39.81;21.23;100925.98;103075;1260;96406;-70
2023/04/10 07:59:20;;;;;;;8.80;6.50;;;;;;;39.57;20.67;100919.91;103180;1256;110000;-70
2023/04/10 08:01:44;;;;;;;6.60;5.50;;;;;;;39.49;20.86;100921.18;103077;1256;137622;-72
2023/04/10 08:04:07;;;;;;;7.40;5.10;;;;;;;39.38;21.03;100920.19;103280;1254;96441;-70
2023/04/10 08:06:32;;;;;;;7.30;5.40;;;;;;;39.33;20.89;100916.31;103342;1258;100312;-70
2023/04/10 08:08:56;;;;;;;6.10;5.30;;;;;;;39.41;20.77;100916.21;103285;1255;96337;-70
2023/04/10 08:11:26;;;;;;;6.20;5.40;;;;;;;39.37;20.75;100916.66;103249;1258;101632;-72
2023/04/10 08:13:50;;;;;;;6.90;5.60;;;;;;;39.01;20.88;100915.80;103173;1258;137608;-70
2023/04/10 08:16:14;;;;;;;7.10;5.40;;;;;;;38.80;20.69;100914.29;103232;1256;95258;-70
2023/04/10 08:18:37;;;;;;;6.60;5.10;;;;;;;38.66;20.73;100914.83;102987;1256;138114;-70
2023/04/10 08:21:01;;;;;;;6.60;5.60;;;;;;;38.51;20.86;100918.52;103194;1256;96470;-69
2023/04/10 08:23:24;;;;;;;7.00;5.30;;;;;;;38.16;20.73;100917.48;103197;1255;102475;-69
2023/04/10 08:25:48;;;;;;;5.50;4.50;;;;;;;38.05;21.13;100912.05;103163;1257;137825;-70
2023/04/10 08:28:12;;;;;;;8.70;5.70;;;;;;;38.12;21.16;100914.01;103251;1256;96453;-70
2023/04/10 08:30:35;;;;;;;6.50;4.40;;;;;;;38.15;21.10;100912.03;103168;1258;137574;-70
2023/04/10 08:32:59;;;;;;;6.10;4.80;;;;;;;38.11;21.00;100909.95;103240;1256;96397;-70
2023/04/10 08:35:22;;;;;;;7.70;5.00;;;;;;;37.96;20.92;100907.14;103249;1258;101336;-69
2023/04/10 08:37:46;;;;;;;6.90;5.20;;;;;;;37.94;21.27;100908.45;103098;1255;138167;-70
2023/04/10 08:40:25;;;;;;;8.70;4.60;;;;;;;37.84;20.97;100904.35;103250;1256;96448;-70
2023/04/10 08:42:49;;;;;;;6.80;5.00;;;;;;;37.43;20.88;100904.81;103060;1258;137587;-70
2023/04/10 08:45:12;;;;;;;6.10;5.00;;;;;;;37.30;21.47;100903.34;103219;1256;96340;-70
2023/04/10 08:47:37;;;;;;;5.80;5.10;;;;;;;37.50;21.65;100900.28;103194;1258;102397;-71
2023/04/10 08:50:07;;;;;;;6.70;4.60;;;;;;;37.66;21.43;100899.27;103085;1254;137559;-70
2023/04/10 08:52:33;;;;;;;5.40;4.30;;;;;;;37.78;21.80;100900.55;103380;1256;96461;-70
2023/04/10 08:54:59;;;;;;;7.70;4.60;;;;;;;37.87;21.71;100900.83;103362;1258;137643;-70
2023/04/10 08:57:23;;;;;;;7.30;4.60;;;;;;;37.77;21.56;100900.55;103163;1254;96642;-69
2023/04/10 08:59:47;;;;;;;6.20;4.50;;;;;;;37.74;21.54;100897.55;103216;1258;102112;-71
2023/04/10 09:02:10;;;;;;;5.30;3.80;;;;;;;37.84;21.44;100899.45;103073;1256;137594;-70
2023/04/10 09:04:34;;;;;;;6.40;4.60;;;;;;;37.66;21.49;100897.73;103270;1256;96456;-71
2023/04/10 09:06:58;;;;;;;6.90;4.20;;;;;;;37.49;21.44;100894.40;103049;1258;137824;-70
2023/04/10 09:09:21;;;;;;;5.50;4.30;;;;;;;36.94;21.33;100891.74;103191;1258;96557;-70
2023/04/10 09:12:02;;;;;;;6.30;4.30;;;;;;;36.57;21.63;100887.77;103229;1254;102207;-70
2023/04/10 09:14:28;;;;;;;6.90;5.20;;;;;;;36.61;22.05;100884.91;103021;1258;137631;-70
2023/04/10 09:16:53;;;;;;;6.10;5.10;;;;;;;36.54;21.83;100881.84;103213;1259;96458;-70
2023/04/10 09:19:30;;;;;;;7.30;5.50;;;;;;;36.16;21.69;100879.22;103055;1257;137615;-69
2023/04/10 09:21:55;;;;;;;6.00;4.00;;;;;;;35.72;21.87;100879.30;103654;1258;96537;-70
2023/04/10 09:24:18;;;;;;;6.30;4.40;;;;;;;35.63;22.33;100883.08;103220;1254;102943;-69
2023/04/10 09:26:42;;;;;;;5.30;3.70;;;;;;;35.29;22.29;100876.39;103075;1256;137733;-70
2023/04/10 09:29:06;;;;;;;6.60;4.50;;;;;;;35.03;22.78;100876.98;103171;1256;96341;-70
2023/04/10 09:31:32;;;;;;;10.60;4.60;;;;;;;34.94;22.86;100870.21;103018;1255;137454;-70
2023/04/10 09:34:07;;;;;;;7.30;5.30;;;;;;;34.79;22.73;100868.92;103173;1258;96432;-70
2023/04/10 09:36:31;;;;;;;5.90;4.20;;;;;;;34.25;22.62;100867.59;103443;1254;102889;-70
2023/04/10 09:38:55;;;;;;;8.20;4.60;;;;;;;33.08;23.03;100869.92;102865;1258;97657;-69
2023/04/10 09:41:18;;;;;;;6.80;4.00;;;;;;;32.62;23.98;100871.02;102944;1260;96464;-69
2023/04/10 09:43:44;;;;;;;4.50;3.60;;;;;;;32.72;24.36;100865.70;102941;1255;137400;-69
2023/04/10 09:46:07;;;;;;;4.80;3.80;;;;;;;32.93;24.38;100868.11;103174;1255;96326;-69
2023/04/10 09:48:31;;;;;;;4.50;3.50;;;;;;;33.23;24.37;100868.10;103188;1258;100973;-70
2023/04/10 09:50:56;;;;;;;4.20;3.40;;;;;;;33.64;24.07;100862.54;103140;1260;101501;-69
2023/04/10 09:53:20;;;;;;;5.60;3.40;;;;;;;33.56;23.50;100861.71;103188;1259;96466;-68
2023/04/10 09:55:44;;;;;;;5.30;3.40;;;;;;;33.29;23.63;100856.94;103090;1258;137438;-69
2023/04/10 09:58:09;;;;;;;5.50;3.60;;;;;;;32.87;23.49;100850.98;103222;1255;96534;-70
2023/04/10 10:00:36;;;;;;;6.60;3.50;;;;;;;32.40;24.04;100851.59;103223;1259;100827;-70
2023/04/10 10:03:02;;;;;;;6.60;3.60;;;;;;;31.91;23.98;100847.35;102932;1260;98501;-70
2023/04/10 10:05:29;;;;;;;6.50;3.30;;;;;;;30.98;24.41;100849.27;103171;1256;97985;-70
2023/04/10 10:07:52;;;;;;;9.50;3.90;;;;;;;30.23;24.73;100845.29;103183;1259;139226;-69
2023/04/10 10:10:16;;;;;;;4.80;3.30;;;;;;;29.53;25.32;100854.52;103141;1258;97929;-69
2023/04/10 10:12:47;;;;;;;5.00;3.00;;;;;;;29.04;26.10;100855.60;103072;1256;137831;-70
2023/04/10 10:15:15;;;;;;;5.80;3.10;;;;;;;29.14;26.68;100847.57;103126;1259;108092;-71
2023/04/10 10:17:44;;;;;;;3.70;2.80;;;;;;;29.56;26.70;100846.89;103197;1258;97658;-70
2023/04/10 10:20:11;;;;;;;6.00;3.10;;;;;;;30.02;26.67;100837.87;103092;1259;137774;-70
2023/04/10 10:22:36;;;;;;;7.10;3.00;;;;;;;30.53;26.31;100828.59;103181;1254;97845;-70
2023/04/10 10:25:01;;;;;;;7.90;3.20;;;;;;;30.92;26.01;100829.25;103251;1254;137802;-70
2023/04/10 10:27:26;;;;;;;;;;;;;;;30.85;25.51;100826.45;103220;1255;107466;-70
2023/04/10 10:29:52;;;;;;;5.10;2.60;;;;;;;30.34;25.37;100818.46;103217;1258;97770;-70
2023/04/10 10:32:17;;;;;;;7.70;3.20;;;;;;;29.92;25.76;100817.84;103078;1259;137640;-70
2023/04/10 10:34:41;;;;;;;7.20;4.00;;;;;;;29.79;25.86;100819.18;103175;1254;97895;-70
2023/04/10 10:37:05;;;;;;;7.80;3.40;;;;;;;29.38;26.01;100822.90;103097;1259;138095;-70
2023/04/10 10:39:36;;;;;;;6.40;3.50;;;;;;;29.10;26.60;100817.59;103226;1255;107273;-70
2023/04/10 10:42:08;;;;;;;4.60;3.30;;;;;;;29.07;26.70;100814.11;103186;1256;97806;-70
2023/04/10 10:44:40;;;;;;;5.60;3.40;;;;;;;28.67;26.61;100809.64;103146;1256;137700;-70
2023/04/10 10:47:13;;;;;;;6.20;3.60;;;;;;;28.07;26.86;100809.11;103195;1258;97907;-69
2023/04/10 10:49:55;;;;;;;7.00;3.00;;;;;;;27.42;27.46;100813.52;103143;1255;137556;-69
2023/04/10 10:52:37;;;;;;;4.40;3.00;;;;;;;26.82;27.89;100818.78;103151;1259;108033;-69
2023/04/10 10:55:20;;;;;;;7.40;2.90;;;;;;;26.24;28.23;100817.05;103136;1254;138813;-69
2023/04/10 10:57:48;;;;;;;4.90;3.20;;;;;;;25.71;28.99;100812.96;103154;1259;109105;-70
2023/04/10 11:00:13;;;;;;;6.10;2.90;;;;;;;25.35;29.34;100820.27;102965;1256;97743;-69
2023/04/10 11:02:37;;;;;;;8.70;2.90;;;;;;;25.09;29.51;100816.25;103052;1258;137634;-69
2023/04/10 11:05:00;;;;;;;7.00;3.00;;;;;;;24.78;29.70;100817.23;103192;1259;107228;-69
2023/04/10 11:08:02;;;;;;;6.00;3.00;;;;;;;24.71;30.31;100815.11;103145;1258;139517;-69
2023/04/10 11:10:57;;;;;;;4.60;2.80;;;;;;;25.02;30.74;100808.52;103133;1260;106789;-70
2023/04/10 11:13:23;;;;;;;6.00;3.20;;;;;;;25.29;30.56;100805.83;103003;1256;137822;-69
2023/04/10 11:15:51;;;;;;;6.70;4.30;;;;;;;25.54;30.34;100794.41;103341;1260;110903;-71
2023/04/10 11:18:14;;;;;;;5.80;2.90;;;;;;;25.62;29.98;100791.58;103180;1267;107578;-69
2023/04/10 11:21:09;;;;;;;4.00;2.90;;;;;;;25.69;30.02;100794.19;103095;1260;137946;-69
2023/04/10 11:23:32;;;;;;;7.00;3.70;;;;;;;25.83;29.94;100790.67;103243;1258;107539;-69